Time,TemperatureF,DewpointF,PressureIn,WindDirection,WindDirectionDegrees,WindSpeedMPH,WindSpeedGustMPH,Humidity,HourlyPrecipIn,Conditions,Clouds,dailyrainin,SoftwareType,DateUTC
2013-01-26 00:00:00,56.9,50.6,30.26,West,263,0.0,0.0,80,0.00,,,0.00,VWS V14.01,2013-01-26 05:00:00,
2013-01-26 00:01:00,56.9,50.7,30.26,West,263,0.0,0.0,80,0.00,,,0.00,VWS V14.01,2013-01-26 05:01:00,
2013-01-26 00:02:00,56.9,50.7,30.26,West,263,0.0,0.0,80,0.00,,,0.00,VWS V14.01,2013-01-26 05:02:00,
2013-01-26 00:05:00,56.8,50.6,30.25,West,263,0.0,0.0,80,0.00,,,0.00,VWS V14.01,2013-01-26 05:05:00,
2013-01-26 00:07:00,56.8,50.6,30.25,West,263,0.0,0.0,80,0.00,,,0.00,VWS V14.01,2013-01-26 05:07:00,
2013-01-26 00:10:00,56.7,50.5,30.25,West,263,0.0,0.0,80,0.00,,,0.00,VWS V14.01,2013-01-26 05:10:00,
2013-01-26 00:12:00,56.7,50.5,30.26,West,263,0.0,0.0,80,0.00,,,0.00,VWS V14.01,2013-01-26 05:12:00,
2013-01-26 00:15:00,56.5,50.3,30.25,West,263,0.0,0.0,80,0.00,,,0.00,VWS V14.01,2013-01-26 05:15:00,
2013-01-26 00:17:00,56.5,50.3,30.26,West,263,0.0,0.0,80,0.00,,,0.00,VWS V14.01,2013-01-26 05:17:00,
2013-01-26 00:20:00,56.4,50.4,30.26,West,263,0.0,0.0,80,0.00,,,0.00,VWS V14.01,2013-01-26 05:20:00,
2013-01-26 00:22:00,56.3,50.3,30.26,West,263,0.0,0.0,80,0.00,,,0.00,VWS V14.01,2013-01-26 05:22:00,
2013-01-26 00:25:00,56.3,50.3,30.26,West,263,0.0,0.0,80,0.00,,,0.00,VWS V14.01,2013-01-26 05:25:00,
2013-01-26 00:27:00,56.2,50.3,30.26,West,263,0.0,0.0,81,0.00,,,0.00,VWS V14.01,2013-01-26 05:27:00,
2013-01-26 00:30:00,56.2,50.4,30.26,West,263,0.0,0.0,81,0.00,,,0.00,VWS V14.01,2013-01-26 05:30:00,
2013-01-26 00:32:00,56.1,50.3,30.26,West,263,0.0,0.0,81,0.00,,,0.00,VWS V14.01,2013-01-26 05:32:00,
2013-01-26 00:35:00,56.0,50.2,30.26,West,263,0.0,0.0,81,0.00,,,0.00,VWS V14.01,2013-01-26 05:35:00,
2013-01-26 00:37:00,55.9,50.1,30.26,West,263,0.0,0.0,81,0.00,,,0.00,VWS V14.01,2013-01-26 05:37:00,
2013-01-26 00:40:00,55.9,50.2,30.25,West,263,0.0,0.0,81,0.00,,,0.00,VWS V14.01,2013-01-26 05:40:00,
2013-01-26 00:42:00,55.9,50.2,30.26,West,263,0.0,0.0,81,0.00,,,0.00,VWS V14.01,2013-01-26 05:42:00,
2013-01-26 00:45:00,55.7,50.1,30.25,West,263,0.0,0.0,81,0.00,,,0.00,VWS V14.01,2013-01-26 05:45:00,
2013-01-26 00:47:00,55.7,50.1,30.26,West,263,0.0,0.0,81,0.00,,,0.00,VWS V14.01,2013-01-26 05:47:00,
2013-01-26 00:50:00,55.7,50.1,30.25,West,263,0.0,0.0,81,0.00,,,0.00,VWS V14.01,2013-01-26 05:50:00,
2013-01-26 00:52:00,55.6,50.0,30.26,West,263,0.0,0.0,81,0.00,,,0.00,VWS V14.01,2013-01-26 05:52:00,
2013-01-26 00:55:00,55.6,50.1,30.25,West,263,0.0,0.0,82,0.00,,,0.00,VWS V14.01,2013-01-26 05:55:00,
2013-01-26 00:57:00,55.6,50.1,30.26,West,263,0.0,0.0,82,0.00,,,0.00,VWS V14.01,2013-01-26 05:57:00,
2013-01-26 01:00:00,55.4,49.9,30.25,West,263,0.0,0.0,82,0.00,,,0.00,VWS V14.01,2013-01-26 06:00:00,
2013-01-26 01:02:00,55.4,50.0,30.26,West,263,0.0,0.0,82,0.00,,,0.00,VWS V14.01,2013-01-26 06:02:00,
2013-01-26 01:05:00,55.3,50.0,30.25,West,263,0.0,0.0,82,0.00,,,0.00,VWS V14.01,2013-01-26 06:05:00,
2013-01-26 01:07:00,55.2,49.9,30.26,West,263,0.0,0.0,82,0.00,,,0.00,VWS V14.01,2013-01-26 06:07:00,
2013-01-26 01:10:00,55.1,49.9,30.25,West,263,0.0,0.0,83,0.00,,,0.00,VWS V14.01,2013-01-26 06:10:00,
2013-01-26 01:12:00,55.2,50.0,30.25,West,263,0.0,0.0,83,0.00,,,0.00,VWS V14.01,2013-01-26 06:12:00,
2013-01-26 01:15:00,55.0,49.9,30.25,West,263,0.0,0.0,83,0.00,,,0.00,VWS V14.01,2013-01-26 06:15:00,
2013-01-26 01:17:00,54.9,49.9,30.25,West,263,0.0,0.0,83,0.00,,,0.00,VWS V14.01,2013-01-26 06:17:00,
2013-01-26 01:20:00,54.8,49.9,30.25,West,263,0.0,0.0,83,0.00,,,0.00,VWS V14.01,2013-01-26 06:20:00,
2013-01-26 01:22:00,54.8,49.9,30.25,West,263,0.0,0.0,84,0.00,,,0.00,VWS V14.01,2013-01-26 06:22:00,
2013-01-26 01:25:00,54.8,50.0,30.25,West,263,0.0,0.0,84,0.00,,,0.00,VWS V14.01,2013-01-26 06:25:00,
2013-01-26 01:27:00,54.7,49.9,30.25,West,263,0.0,0.0,84,0.00,,,0.00,VWS V14.01,2013-01-26 06:27:00,
2013-01-26 01:30:00,54.7,50.1,30.25,West,263,0.0,0.0,84,0.00,,,0.00,VWS V14.01,2013-01-26 06:30:00,
2013-01-26 01:32:00,54.7,50.1,30.25,West,263,0.0,0.0,84,0.00,,,0.00,VWS V14.01,2013-01-26 06:32:00,
2013-01-26 01:35:00,54.6,50.1,30.25,West,263,0.0,0.0,85,0.00,,,0.00,VWS V14.01,2013-01-26 06:35:00,
2013-01-26 01:37:00,54.6,50.1,30.25,West,263,0.0,0.0,85,0.00,,,0.00,VWS V14.01,2013-01-26 06:37:00,
2013-01-26 01:40:00,54.5,50.1,30.25,West,263,0.0,0.0,85,0.00,,,0.00,VWS V14.01,2013-01-26 06:40:00,
2013-01-26 01:42:00,54.4,50.1,30.25,West,263,0.0,0.0,85,0.00,,,0.00,VWS V14.01,2013-01-26 06:42:00,
2013-01-26 01:45:00,54.3,50.0,30.25,West,263,0.0,0.0,85,0.00,,,0.00,VWS V14.01,2013-01-26 06:45:00,
2013-01-26 01:47:00,54.3,50.0,30.25,West,263,0.0,0.0,85,0.00,,,0.00,VWS V14.01,2013-01-26 06:47:00,
2013-01-26 01:50:00,54.2,49.9,30.25,West,263,0.0,0.0,85,0.00,,,0.00,VWS V14.01,2013-01-26 06:50:00,
2013-01-26 01:52:00,54.2,49.9,30.25,West,263,0.0,0.0,85,0.00,,,0.00,VWS V14.01,2013-01-26 06:52:00,
2013-01-26 01:55:00,54.2,50.0,30.25,West,263,0.0,0.0,86,0.00,,,0.00,VWS V14.01,2013-01-26 06:55:00,
2013-01-26 01:57:00,54.1,49.9,30.25,West,263,0.0,0.0,86,0.00,,,0.00,VWS V14.01,2013-01-26 06:57:00,
2013-01-26 02:00:00,54.0,49.8,30.24,West,263,0.0,0.0,86,0.00,,,0.00,VWS V14.01,2013-01-26 07:00:00,
2013-01-26 02:02:00,54.0,49.8,30.24,West,263,0.0,0.0,86,0.00,,,0.00,VWS V14.01,2013-01-26 07:02:00,
2013-01-26 02:05:00,54.0,49.9,30.24,West,263,0.0,0.0,86,0.00,,,0.00,VWS V14.01,2013-01-26 07:05:00,
2013-01-26 02:06:00,53.8,49.7,30.24,West,263,0.0,0.0,86,0.00,,,0.00,VWS V14.01,2013-01-26 07:06:00,
2013-01-26 02:10:00,53.8,49.7,30.24,West,263,0.0,0.0,86,0.00,,,0.00,VWS V14.01,2013-01-26 07:10:00,
2013-01-26 02:11:00,53.8,49.7,30.24,West,263,0.0,0.0,86,0.00,,,0.00,VWS V14.01,2013-01-26 07:11:00,
2013-01-26 02:15:00,53.8,49.7,30.24,West,263,0.0,0.0,86,0.00,,,0.00,VWS V14.01,2013-01-26 07:15:00,
2013-01-26 02:16:00,53.8,49.7,30.24,West,263,0.0,0.0,86,0.00,,,0.00,VWS V14.01,2013-01-26 07:16:00,
2013-01-26 02:20:00,53.8,49.7,30.24,West,263,0.0,0.0,86,0.00,,,0.00,VWS V14.01,2013-01-26 07:20:00,
2013-01-26 02:21:00,53.7,49.7,30.24,West,263,0.0,0.0,86,0.00,,,0.00,VWS V14.01,2013-01-26 07:21:00,
2013-01-26 02:25:00,53.7,49.7,30.24,West,263,0.0,0.0,86,0.00,,,0.00,VWS V14.01,2013-01-26 07:25:00,
2013-01-26 02:26:00,53.6,49.6,30.24,West,263,0.0,0.0,86,0.00,,,0.00,VWS V14.01,2013-01-26 07:26:00,
2013-01-26 02:30:00,53.5,49.6,30.24,West,263,0.0,0.0,86,0.00,,,0.00,VWS V14.01,2013-01-26 07:30:00,
2013-01-26 02:31:00,53.5,49.6,30.24,West,263,0.0,0.0,86,0.00,,,0.00,VWS V14.01,2013-01-26 07:31:00,
2013-01-26 02:35:00,53.5,49.6,30.24,West,263,0.0,0.0,87,0.00,,,0.00,VWS V14.01,2013-01-26 07:35:00,
2013-01-26 02:36:00,53.4,49.5,30.24,West,263,0.0,0.0,87,0.00,,,0.00,VWS V14.01,2013-01-26 07:36:00,
2013-01-26 02:40:00,53.4,49.6,30.23,West,263,0.0,0.0,87,0.00,,,0.00,VWS V14.01,2013-01-26 07:40:00,
2013-01-26 02:41:00,53.4,49.6,30.24,West,263,0.0,0.0,87,0.00,,,0.00,VWS V14.01,2013-01-26 07:41:00,
2013-01-26 02:45:00,53.3,49.5,30.23,West,263,0.0,0.0,87,0.00,,,0.00,VWS V14.01,2013-01-26 07:45:00,
2013-01-26 02:46:00,53.3,49.5,30.23,West,263,0.0,0.0,87,0.00,,,0.00,VWS V14.01,2013-01-26 07:46:00,
2013-01-26 02:50:00,53.3,49.6,30.23,West,263,0.0,0.0,87,0.00,,,0.00,VWS V14.01,2013-01-26 07:50:00,
2013-01-26 02:51:00,53.2,49.5,30.23,West,263,0.0,0.0,87,0.00,,,0.00,VWS V14.01,2013-01-26 07:51:00,
2013-01-26 02:55:00,53.2,49.5,30.23,West,263,0.0,0.0,87,0.00,,,0.00,VWS V14.01,2013-01-26 07:55:00,
2013-01-26 02:56:00,53.1,49.4,30.23,West,263,0.0,0.0,87,0.00,,,0.00,VWS V14.01,2013-01-26 07:56:00,
2013-01-26 03:00:00,53.1,49.5,30.23,West,263,0.0,0.0,87,0.00,,,0.00,VWS V14.01,2013-01-26 08:00:00,
2013-01-26 03:01:00,53.0,49.4,30.23,West,263,0.0,0.0,87,0.00,,,0.00,VWS V14.01,2013-01-26 08:01:00,
2013-01-26 03:05:00,53.0,49.5,30.23,West,263,0.0,0.0,88,0.00,,,0.00,VWS V14.01,2013-01-26 08:05:00,
2013-01-26 03:06:00,53.0,49.5,30.23,West,263,0.0,0.0,88,0.00,,,0.00,VWS V14.01,2013-01-26 08:06:00,
2013-01-26 03:10:00,53.0,49.5,30.23,West,263,0.0,0.0,88,0.00,,,0.00,VWS V14.01,2013-01-26 08:10:00,
2013-01-26 03:11:00,53.0,49.5,30.23,West,263,0.0,0.0,88,0.00,,,0.00,VWS V14.01,2013-01-26 08:11:00,
2013-01-26 03:15:00,53.0,49.5,30.23,West,263,0.0,0.0,88,0.00,,,0.00,VWS V14.01,2013-01-26 08:15:00,
2013-01-26 03:16:00,52.9,49.4,30.23,West,263,0.0,0.0,88,0.00,,,0.00,VWS V14.01,2013-01-26 08:16:00,
2013-01-26 03:20:00,52.8,49.4,30.23,West,263,0.0,0.0,88,0.00,,,0.00,VWS V14.01,2013-01-26 08:20:00,
2013-01-26 03:21:00,52.9,49.5,30.23,West,263,0.0,0.0,88,0.00,,,0.00,VWS V14.01,2013-01-26 08:21:00,
2013-01-26 03:25:00,52.8,49.5,30.23,West,263,0.0,0.0,88,0.00,,,0.00,VWS V14.01,2013-01-26 08:25:00,
2013-01-26 03:26:00,52.7,49.4,30.23,West,263,0.0,0.0,88,0.00,,,0.00,VWS V14.01,2013-01-26 08:26:00,
2013-01-26 03:30:00,52.7,49.5,30.23,West,263,0.0,0.0,89,0.00,,,0.00,VWS V14.01,2013-01-26 08:30:00,
2013-01-26 03:31:00,52.7,49.5,30.23,West,263,0.0,0.0,89,0.00,,,0.00,VWS V14.01,2013-01-26 08:31:00,
2013-01-26 03:35:00,52.7,49.6,30.23,West,263,0.0,0.0,89,0.00,,,0.00,VWS V14.01,2013-01-26 08:35:00,
2013-01-26 03:36:00,52.7,49.5,30.23,West,263,0.0,0.0,89,0.00,,,0.00,VWS V14.01,2013-01-26 08:36:00,
2013-01-26 03:40:00,52.7,49.5,30.23,West,263,0.0,0.0,89,0.00,,,0.00,VWS V14.01,2013-01-26 08:40:00,
2013-01-26 03:41:00,52.7,49.5,30.23,West,263,0.0,0.0,89,0.00,,,0.00,VWS V14.01,2013-01-26 08:41:00,
2013-01-26 03:45:00,52.5,49.2,30.23,West,263,0.0,0.0,89,0.00,,,0.00,VWS V14.01,2013-01-26 08:45:00,
2013-01-26 03:46:00,52.5,49.2,30.23,West,263,0.0,0.0,89,0.00,,,0.00,VWS V14.01,2013-01-26 08:46:00,
2013-01-26 03:50:00,52.6,49.5,30.23,West,263,0.0,0.0,89,0.00,,,0.00,VWS V14.01,2013-01-26 08:50:00,
2013-01-26 03:51:00,52.6,49.5,30.23,West,263,0.0,0.0,89,0.00,,,0.00,VWS V14.01,2013-01-26 08:51:00,
2013-01-26 03:55:00,52.5,49.4,30.23,West,263,0.0,0.0,89,0.00,,,0.00,VWS V14.01,2013-01-26 08:55:00,
2013-01-26 03:56:00,52.4,49.3,30.23,West,263,0.0,0.0,89,0.00,,,0.00,VWS V14.01,2013-01-26 08:56:00,
2013-01-26 04:00:00,52.6,49.6,30.23,West,263,0.0,0.0,90,0.00,,,0.00,VWS V14.01,2013-01-26 09:00:00,
2013-01-26 04:01:00,52.5,49.6,30.23,West,263,0.0,0.0,90,0.00,,,0.00,VWS V14.01,2013-01-26 09:01:00,
2013-01-26 04:05:00,52.5,49.5,30.23,West,263,0.0,0.0,90,0.00,,,0.00,VWS V14.01,2013-01-26 09:05:00,
2013-01-26 04:06:00,52.4,49.4,30.23,West,263,0.0,0.0,90,0.00,,,0.00,VWS V14.01,2013-01-26 09:06:00,
2013-01-26 04:10:00,52.5,49.6,30.23,West,263,0.0,0.0,90,0.00,,,0.00,VWS V14.01,2013-01-26 09:10:00,
2013-01-26 04:11:00,52.5,49.6,30.23,West,263,0.0,0.0,90,0.00,,,0.00,VWS V14.01,2013-01-26 09:11:00,
2013-01-26 04:15:00,52.6,49.8,30.23,West,263,0.0,0.0,90,0.00,,,0.00,VWS V14.01,2013-01-26 09:15:00,
2013-01-26 04:16:00,52.5,49.7,30.23,West,263,0.0,0.0,90,0.00,,,0.00,VWS V14.01,2013-01-26 09:16:00,
2013-01-26 04:20:00,52.5,49.7,30.23,West,263,0.0,0.0,90,0.00,,,0.00,VWS V14.01,2013-01-26 09:20:00,
2013-01-26 04:21:00,52.5,49.7,30.23,West,263,0.0,0.0,90,0.00,,,0.00,VWS V14.01,2013-01-26 09:21:00,
2013-01-26 04:25:00,52.6,49.8,30.23,West,263,0.0,0.0,90,0.00,,,0.00,VWS V14.01,2013-01-26 09:25:00,
2013-01-26 04:26:00,52.4,49.6,30.23,West,263,0.0,0.0,90,0.00,,,0.00,VWS V14.01,2013-01-26 09:26:00,
2013-01-26 04:30:00,52.5,49.8,30.23,West,263,0.0,0.0,90,0.00,,,0.00,VWS V14.01,2013-01-26 09:30:00,
2013-01-26 04:31:00,52.4,49.7,30.23,West,263,0.0,0.0,90,0.00,,,0.00,VWS V14.01,2013-01-26 09:31:00,
2013-01-26 04:35:00,52.4,49.7,30.23,West,263,0.0,0.0,90,0.00,,,0.00,VWS V14.01,2013-01-26 09:35:00,
2013-01-26 04:36:00,52.3,49.6,30.23,West,263,0.0,0.0,90,0.00,,,0.00,VWS V14.01,2013-01-26 09:36:00,
2013-01-26 04:40:00,52.3,49.6,30.23,West,263,0.0,0.0,90,0.00,,,0.00,VWS V14.01,2013-01-26 09:40:00,
2013-01-26 04:41:00,52.4,49.7,30.23,West,263,0.0,0.0,90,0.00,,,0.00,VWS V14.01,2013-01-26 09:41:00,
2013-01-26 04:45:00,52.3,49.6,30.23,West,263,0.0,0.0,90,0.00,,,0.00,VWS V14.01,2013-01-26 09:45:00,
2013-01-26 04:46:00,52.2,49.5,30.23,West,263,0.0,0.0,90,0.00,,,0.00,VWS V14.01,2013-01-26 09:46:00,
2013-01-26 04:50:00,52.1,49.4,30.23,West,263,0.0,0.0,90,0.00,,,0.00,VWS V14.01,2013-01-26 09:50:00,
2013-01-26 04:51:00,52.0,49.3,30.23,West,263,0.0,0.0,90,0.00,,,0.00,VWS V14.01,2013-01-26 09:51:00,
2013-01-26 04:55:00,51.9,49.2,30.23,West,263,0.0,0.0,91,0.00,,,0.00,VWS V14.01,2013-01-26 09:55:00,
2013-01-26 04:56:00,51.9,49.2,30.23,West,263,0.0,0.0,91,0.00,,,0.00,VWS V14.01,2013-01-26 09:56:00,
2013-01-26 05:00:00,51.9,49.2,30.23,West,263,0.0,0.0,90,0.00,,,0.00,VWS V14.01,2013-01-26 10:00:00,
2013-01-26 05:01:00,51.9,49.2,30.23,West,263,0.0,0.0,90,0.00,,,0.00,VWS V14.01,2013-01-26 10:01:00,
2013-01-26 05:05:00,51.9,49.2,30.23,West,263,0.0,0.0,90,0.00,,,0.00,VWS V14.01,2013-01-26 10:05:00,
2013-01-26 05:06:00,51.8,49.1,30.23,West,263,0.0,0.0,90,0.00,,,0.00,VWS V14.01,2013-01-26 10:06:00,
2013-01-26 05:10:00,51.9,49.2,30.24,West,263,0.0,0.0,91,0.00,,,0.00,VWS V14.01,2013-01-26 10:10:00,
2013-01-26 05:11:00,51.8,49.1,30.24,West,263,0.0,0.0,91,0.00,,,0.00,VWS V14.01,2013-01-26 10:11:00,
2013-01-26 05:15:00,51.8,49.2,30.24,West,263,0.0,0.0,91,0.00,,,0.00,VWS V14.01,2013-01-26 10:15:00,
2013-01-26 05:16:00,51.8,49.2,30.24,West,263,0.0,0.0,91,0.00,,,0.00,VWS V14.01,2013-01-26 10:16:00,
2013-01-26 05:20:00,51.9,49.3,30.24,West,263,0.0,0.0,91,0.00,,,0.00,VWS V14.01,2013-01-26 10:20:00,
2013-01-26 05:21:00,51.8,49.2,30.24,West,263,0.0,0.0,91,0.00,,,0.00,VWS V14.01,2013-01-26 10:21:00,
2013-01-26 05:25:00,51.8,49.2,30.24,West,263,0.0,0.0,91,0.00,,,0.00,VWS V14.01,2013-01-26 10:25:00,
2013-01-26 05:26:00,51.8,49.2,30.24,West,263,0.0,0.0,91,0.00,,,0.00,VWS V14.01,2013-01-26 10:26:00,
2013-01-26 05:30:00,51.8,49.2,30.24,West,263,0.0,0.0,91,0.00,,,0.00,VWS V14.01,2013-01-26 10:30:00,
2013-01-26 05:31:00,51.8,49.2,30.24,West,263,0.0,0.0,91,0.00,,,0.00,VWS V14.01,2013-01-26 10:31:00,
2013-01-26 05:35:00,51.7,49.1,30.24,West,263,0.0,0.0,91,0.00,,,0.00,VWS V14.01,2013-01-26 10:35:00,
2013-01-26 05:36:00,51.6,49.0,30.24,West,263,0.0,0.0,91,0.00,,,0.00,VWS V14.01,2013-01-26 10:36:00,
2013-01-26 05:40:00,51.5,48.9,30.24,West,263,0.0,0.0,91,0.00,,,0.00,VWS V14.01,2013-01-26 10:40:00,
2013-01-26 05:41:00,51.5,48.9,30.24,West,263,0.0,0.0,91,0.00,,,0.00,VWS V14.01,2013-01-26 10:41:00,
2013-01-26 05:45:00,51.4,48.9,30.24,West,263,0.0,0.0,91,0.00,,,0.00,VWS V14.01,2013-01-26 10:45:00,
2013-01-26 05:46:00,51.4,48.9,30.24,West,263,0.0,0.0,91,0.00,,,0.00,VWS V14.01,2013-01-26 10:46:00,
2013-01-26 05:50:00,51.3,48.8,30.24,West,263,0.0,0.0,91,0.00,,,0.00,VWS V14.01,2013-01-26 10:50:00,
2013-01-26 05:51:00,51.3,48.8,30.24,West,263,0.0,0.0,91,0.00,,,0.00,VWS V14.01,2013-01-26 10:51:00,
2013-01-26 05:55:00,51.3,48.8,30.24,West,263,0.0,0.0,91,0.00,,,0.00,VWS V14.01,2013-01-26 10:55:00,
2013-01-26 05:56:00,51.4,48.9,30.24,West,263,0.0,0.0,91,0.00,,,0.00,VWS V14.01,2013-01-26 10:56:00,
2013-01-26 06:00:00,51.4,48.8,30.24,West,263,0.0,0.0,91,0.00,,,0.00,VWS V14.01,2013-01-26 11:00:00,
2013-01-26 06:01:00,51.3,48.7,30.24,West,263,0.0,0.0,91,0.00,,,0.00,VWS V14.01,2013-01-26 11:01:00,
2013-01-26 06:05:00,51.3,48.7,30.24,West,263,0.0,0.0,91,0.00,,,0.00,VWS V14.01,2013-01-26 11:05:00,
2013-01-26 06:06:00,51.3,48.8,30.24,West,263,0.0,0.0,91,0.00,,,0.00,VWS V14.01,2013-01-26 11:06:00,
2013-01-26 06:10:00,51.2,48.7,30.24,West,263,0.0,0.0,91,0.00,,,0.00,VWS V14.01,2013-01-26 11:10:00,
2013-01-26 06:11:00,51.2,48.7,30.24,West,263,0.0,0.0,91,0.00,,,0.00,VWS V14.01,2013-01-26 11:11:00,
2013-01-26 06:15:00,51.2,48.7,30.25,West,263,0.0,0.0,91,0.00,,,0.00,VWS V14.01,2013-01-26 11:15:00,
2013-01-26 06:16:00,51.1,48.6,30.25,West,263,0.0,0.0,91,0.00,,,0.00,VWS V14.01,2013-01-26 11:16:00,
2013-01-26 06:20:00,51.2,48.7,30.25,West,263,0.0,0.0,91,0.00,,,0.00,VWS V14.01,2013-01-26 11:20:00,
2013-01-26 06:21:00,51.2,48.7,30.25,West,263,0.0,0.0,91,0.00,,,0.00,VWS V14.01,2013-01-26 11:21:00,
2013-01-26 06:25:00,51.1,48.5,30.25,West,263,0.0,0.0,91,0.00,,,0.00,VWS V14.01,2013-01-26 11:25:00,
2013-01-26 06:26:00,51.1,48.5,30.25,West,263,0.0,0.0,91,0.00,,,0.00,VWS V14.01,2013-01-26 11:26:00,
2013-01-26 06:30:00,51.1,48.5,30.25,West,263,0.0,0.0,91,0.00,,,0.00,VWS V14.01,2013-01-26 11:30:00,
2013-01-26 06:31:00,51.0,48.4,30.25,West,263,0.0,0.0,91,0.00,,,0.00,VWS V14.01,2013-01-26 11:31:00,
2013-01-26 06:35:00,51.0,48.4,30.25,West,263,0.0,0.0,91,0.00,,,0.00,VWS V14.01,2013-01-26 11:35:00,
2013-01-26 06:36:00,51.0,48.5,30.25,West,263,0.0,0.0,91,0.00,,,0.00,VWS V14.01,2013-01-26 11:36:00,
2013-01-26 06:40:00,51.0,48.5,30.25,West,263,0.0,0.0,91,0.00,,,0.00,VWS V14.01,2013-01-26 11:40:00,
2013-01-26 06:41:00,51.0,48.5,30.25,West,263,0.0,0.0,91,0.00,,,0.00,VWS V14.01,2013-01-26 11:41:00,
2013-01-26 06:45:00,50.9,48.4,30.25,West,263,0.0,0.0,91,0.00,,,0.00,VWS V14.01,2013-01-26 11:45:00,
2013-01-26 06:46:00,51.0,48.5,30.25,West,263,0.0,0.0,91,0.00,,,0.00,VWS V14.01,2013-01-26 11:46:00,
2013-01-26 06:50:00,50.9,48.4,30.25,West,263,0.0,0.0,91,0.00,,,0.00,VWS V14.01,2013-01-26 11:50:00,
2013-01-26 06:51:00,50.9,48.4,30.25,West,263,0.0,0.0,91,0.00,,,0.00,VWS V14.01,2013-01-26 11:51:00,
2013-01-26 06:55:00,50.9,48.4,30.25,West,263,0.0,0.0,91,0.00,,,0.00,VWS V14.01,2013-01-26 11:55:00,
2013-01-26 06:56:00,50.8,48.3,30.26,West,263,0.0,0.0,91,0.00,,,0.00,VWS V14.01,2013-01-26 11:56:00,
2013-01-26 07:00:00,50.7,48.3,30.25,West,263,0.0,0.0,91,0.00,,,0.00,VWS V14.01,2013-01-26 12:00:00,
2013-01-26 07:01:00,50.7,48.3,30.26,West,263,0.0,0.0,91,0.00,,,0.00,VWS V14.01,2013-01-26 12:01:00,
2013-01-26 07:05:00,50.7,48.3,30.26,West,263,0.0,0.0,91,0.00,,,0.00,VWS V14.01,2013-01-26 12:05:00,
2013-01-26 07:06:00,50.7,48.3,30.26,West,263,0.0,0.0,91,0.00,,,0.00,VWS V14.01,2013-01-26 12:06:00,
2013-01-26 07:10:00,50.6,48.2,30.26,West,263,0.0,0.0,91,0.00,,,0.00,VWS V14.01,2013-01-26 12:10:00,
2013-01-26 07:11:00,50.6,48.2,30.26,West,263,0.0,0.0,91,0.00,,,0.00,VWS V14.01,2013-01-26 12:11:00,
2013-01-26 07:15:00,50.6,48.2,30.26,West,263,0.0,0.0,91,0.00,,,0.00,VWS V14.01,2013-01-26 12:15:00,
2013-01-26 07:16:00,50.7,48.3,30.26,West,263,0.0,0.0,91,0.00,,,0.00,VWS V14.01,2013-01-26 12:16:00,
2013-01-26 07:20:00,50.6,48.2,30.26,West,263,0.0,0.0,91,0.00,,,0.00,VWS V14.01,2013-01-26 12:20:00,
2013-01-26 07:21:00,50.6,48.2,30.26,West,263,0.0,0.0,91,0.00,,,0.00,VWS V14.01,2013-01-26 12:21:00,
2013-01-26 07:25:00,50.5,48.1,30.26,West,263,0.0,0.0,92,0.00,,,0.00,VWS V14.01,2013-01-26 12:25:00,
2013-01-26 07:26:00,50.5,48.1,30.26,West,263,0.0,0.0,92,0.00,,,0.00,VWS V14.01,2013-01-26 12:26:00,
2013-01-26 07:30:00,50.4,48.0,30.27,West,263,0.0,0.0,92,0.00,,,0.00,VWS V14.01,2013-01-26 12:30:00,
2013-01-26 07:31:00,50.4,48.0,30.27,West,263,0.0,0.0,92,0.00,,,0.00,VWS V14.01,2013-01-26 12:31:00,
2013-01-26 07:35:00,50.5,48.2,30.27,West,263,0.0,0.0,92,0.00,,,0.00,VWS V14.01,2013-01-26 12:35:00,
2013-01-26 07:36:00,50.5,48.2,30.27,West,263,0.0,0.0,92,0.00,,,0.00,VWS V14.01,2013-01-26 12:36:00,
2013-01-26 07:40:00,50.5,48.2,30.27,West,263,0.0,0.0,92,0.00,,,0.00,VWS V14.01,2013-01-26 12:40:00,
2013-01-26 07:41:00,50.5,48.2,30.27,West,263,0.0,0.0,92,0.00,,,0.00,VWS V14.01,2013-01-26 12:41:00,
2013-01-26 07:45:00,50.5,48.2,30.27,West,263,0.0,0.0,92,0.00,,,0.00,VWS V14.01,2013-01-26 12:45:00,
2013-01-26 07:46:00,50.5,48.2,30.27,West,263,0.0,0.0,92,0.00,,,0.00,VWS V14.01,2013-01-26 12:46:00,
2013-01-26 07:50:00,50.5,48.2,30.27,West,263,0.0,0.0,92,0.00,,,0.00,VWS V14.01,2013-01-26 12:50:00,
2013-01-26 07:55:00,50.6,48.3,30.28,West,263,0.0,0.0,92,0.00,,,0.00,VWS V14.01,2013-01-26 12:55:00,
2013-01-26 08:00:00,50.6,48.3,30.28,West,263,0.0,0.0,92,0.00,,,0.00,VWS V14.01,2013-01-26 13:00:00,
2013-01-26 08:05:00,50.7,48.4,30.28,West,263,0.0,0.0,92,0.00,,,0.00,VWS V14.01,2013-01-26 13:05:00,
2013-01-26 08:10:00,50.9,48.7,30.28,West,263,0.0,0.0,92,0.00,,,0.00,VWS V14.01,2013-01-26 13:10:00,
2013-01-26 08:15:00,51.1,48.9,30.28,West,263,0.0,0.0,92,0.00,,,0.00,VWS V14.01,2013-01-26 13:15:00,
2013-01-26 08:20:00,51.3,49.2,30.28,West,263,0.0,0.0,92,0.00,,,0.00,VWS V14.01,2013-01-26 13:20:00,
2013-01-26 08:25:00,51.7,49.6,30.28,West,263,0.0,0.0,93,0.00,,,0.00,VWS V14.01,2013-01-26 13:25:00,
2013-01-26 08:30:00,52.0,50.0,30.28,West,263,0.0,0.0,93,0.00,,,0.00,VWS V14.01,2013-01-26 13:30:00,
2013-01-26 08:35:00,52.5,50.7,30.28,West,263,0.0,0.0,94,0.00,,,0.00,VWS V14.01,2013-01-26 13:35:00,
2013-01-26 08:40:00,53.0,51.2,30.28,West,263,0.0,0.0,94,0.00,,,0.00,VWS V14.01,2013-01-26 13:40:00,
2013-01-26 08:45:00,53.7,52.0,30.29,West,263,0.0,0.0,94,0.00,,,0.00,VWS V14.01,2013-01-26 13:45:00,
2013-01-26 08:50:00,54.3,52.7,30.29,West,263,0.0,0.0,94,0.00,,,0.00,VWS V14.01,2013-01-26 13:50:00,
2013-01-26 08:55:00,54.9,53.3,30.29,West,263,0.0,0.0,94,0.00,,,0.00,VWS V14.01,2013-01-26 13:55:00,
2013-01-26 09:00:00,55.5,53.9,30.29,West,263,0.0,0.0,94,0.00,,,0.00,VWS V14.01,2013-01-26 14:00:00,
2013-01-26 09:05:00,56.0,54.4,30.29,West,263,0.0,0.0,94,0.00,,,0.00,VWS V14.01,2013-01-26 14:05:00,
2013-01-26 09:10:00,56.6,54.9,30.29,West,263,0.0,0.0,94,0.00,,,0.00,VWS V14.01,2013-01-26 14:10:00,
2013-01-26 09:15:00,57.0,55.3,30.29,West,263,0.0,0.0,94,0.00,,,0.00,VWS V14.01,2013-01-26 14:15:00,
2013-01-26 09:20:00,57.7,55.8,30.29,West,263,0.0,0.0,93,0.00,,,0.00,VWS V14.01,2013-01-26 14:20:00,
2013-01-26 09:25:00,58.1,56.0,30.30,NNW,329,4.5,6.2,93,0.00,,,0.00,VWS V14.01,2013-01-26 14:25:00,
2013-01-26 09:30:00,58.7,56.4,30.30,WNW,301,0.0,3.0,92,0.00,,,0.00,VWS V14.01,2013-01-26 14:30:00,
2013-01-26 09:35:00,59.0,56.5,30.30,WNW,301,0.0,0.0,91,0.00,,,0.00,VWS V14.01,2013-01-26 14:35:00,
2013-01-26 09:40:00,59.4,56.7,30.30,WNW,301,0.0,4.7,91,0.00,,,0.00,VWS V14.01,2013-01-26 14:40:00,
2013-01-26 09:45:00,59.9,57.0,30.30,WSW,248,2.5,5.7,90,0.00,,,0.00,VWS V14.01,2013-01-26 14:45:00,
2013-01-26 09:50:00,60.4,57.0,30.30,West,264,0.0,0.0,89,0.00,,,0.00,VWS V14.01,2013-01-26 14:50:00,
2013-01-26 09:55:00,60.4,56.8,30.30,NNE,15,0.0,2.7,88,0.00,,,0.00,VWS V14.01,2013-01-26 14:55:00,
2013-01-26 10:00:00,60.6,57.0,30.30,NNE,15,0.0,0.0,88,0.00,,,0.00,VWS V14.01,2013-01-26 15:00:00,
2013-01-26 10:05:00,61.1,57.0,30.30,NW,316,0.0,5.3,86,0.00,,,0.00,VWS V14.01,2013-01-26 15:05:00,
2013-01-26 10:10:00,61.5,56.8,30.30,NW,316,0.0,0.0,85,0.00,,,0.00,VWS V14.01,2013-01-26 15:10:00,
2013-01-26 10:15:00,61.8,57.0,30.30,West,277,4.7,6.1,84,0.00,,,0.00,VWS V14.01,2013-01-26 15:15:00,
2013-01-26 10:20:00,62.0,56.7,30.30,West,281,3.2,4.6,83,0.00,,,0.00,VWS V14.01,2013-01-26 15:20:00,
2013-01-26 10:25:00,62.8,56.9,30.31,NNW,340,3.3,5.2,81,0.00,,,0.00,VWS V14.01,2013-01-26 15:25:00,
2013-01-26 10:30:00,63.0,57.0,30.31,NNW,330,3.4,6.8,81,0.00,,,0.00,VWS V14.01,2013-01-26 15:30:00,
2013-01-26 10:35:00,63.4,56.9,30.30,NW,312,0.0,3.2,79,0.00,,,0.00,VWS V14.01,2013-01-26 15:35:00,
2013-01-26 10:40:00,64.0,57.3,30.30,WNW,285,0.0,3.4,79,0.00,,,0.00,VWS V14.01,2013-01-26 15:40:00,
2013-01-26 10:45:00,64.4,57.6,30.30,NW,305,5.2,5.8,78,0.00,,,0.00,VWS V14.01,2013-01-26 15:45:00,
2013-01-26 10:50:00,64.8,57.4,30.30,NNW,332,3.2,6.0,77,0.00,,,0.00,VWS V14.01,2013-01-26 15:50:00,
2013-01-26 10:55:00,65.7,58.1,30.30,WSW,238,1.8,7.8,76,0.00,,,0.00,VWS V14.01,2013-01-26 15:55:00,
2013-01-26 11:00:00,66.5,58.8,30.30,West,262,5.3,6.3,76,0.00,,,0.00,VWS V14.01,2013-01-26 16:00:00,
2013-01-26 11:05:00,67.2,59.2,30.30,North,352,4.1,5.0,76,0.00,,,0.00,VWS V14.01,2013-01-26 16:05:00,
2013-01-26 11:10:00,68.0,59.0,30.29,North,350,3.2,5.3,73,0.00,,,0.00,VWS V14.01,2013-01-26 16:10:00,
2013-01-26 11:15:00,68.3,59.1,30.29,North,354,4.8,8.7,72,0.00,,,0.00,VWS V14.01,2013-01-26 16:15:00,
2013-01-26 11:20:00,68.7,59.5,30.29,NE,45,0.0,0.0,72,0.00,,,0.00,VWS V14.01,2013-01-26 16:20:00,
2013-01-26 11:25:00,69.2,59.3,30.29,NW,319,6.1,6.7,71,0.00,,,0.00,VWS V14.01,2013-01-26 16:25:00,
2013-01-26 11:30:00,69.4,58.9,30.29,NNW,343,0.0,5.9,69,0.00,,,0.00,VWS V14.01,2013-01-26 16:30:00,
2013-01-26 11:35:00,69.8,59.1,30.28,NE,44,0.0,0.0,69,0.00,,,0.00,VWS V14.01,2013-01-26 16:35:00,
2013-01-26 11:40:00,70.0,59.3,30.28,North,359,0.0,4.7,69,0.00,,,0.00,VWS V14.01,2013-01-26 16:40:00,
2013-01-26 11:45:00,70.3,58.7,30.28,North,11,0.0,5.4,67,0.00,,,0.00,VWS V14.01,2013-01-26 16:45:00,
2013-01-26 11:50:00,70.4,59.0,30.28,North,11,0.0,0.0,67,0.00,,,0.00,VWS V14.01,2013-01-26 16:50:00,
2013-01-26 11:55:00,70.5,59.4,30.28,NW,318,0.0,3.0,68,0.00,,,0.00,VWS V14.01,2013-01-26 16:55:00,
2013-01-26 12:00:00,70.9,59.5,30.27,WNW,294,0.0,0.0,67,0.00,,,0.00,VWS V14.01,2013-01-26 17:00:00,
2013-01-26 12:05:00,71.1,58.7,30.28,North,6,0.0,3.4,65,0.00,,,0.00,VWS V14.01,2013-01-26 17:05:00,
2013-01-26 12:10:00,70.9,58.4,30.27,North,357,0.0,0.0,65,0.00,,,0.00,VWS V14.01,2013-01-26 17:10:00,
2013-01-26 12:15:00,70.9,59.1,30.27,ENE,60,0.0,2.4,66,0.00,,,0.00,VWS V14.01,2013-01-26 17:15:00,
2013-01-26 12:20:00,71.4,58.9,30.27,NW,321,0.0,3.0,65,0.00,,,0.00,VWS V14.01,2013-01-26 17:20:00,
2013-01-26 12:25:00,71.6,58.5,30.26,NNW,340,0.0,0.0,63,0.00,,,0.00,VWS V14.01,2013-01-26 17:25:00,
2013-01-26 12:30:00,71.8,58.8,30.26,West,278,0.0,4.5,64,0.00,,,0.00,VWS V14.01,2013-01-26 17:30:00,
2013-01-26 12:35:00,72.0,58.6,30.26,WNW,291,0.0,0.0,63,0.00,,,0.00,VWS V14.01,2013-01-26 17:35:00,
2013-01-26 12:40:00,72.1,57.7,30.26,NW,318,0.0,0.0,60,0.00,,,0.00,VWS V14.01,2013-01-26 17:40:00,
2013-01-26 12:45:00,72.4,58.8,30.26,NW,312,5.0,6.5,62,0.00,,,0.00,VWS V14.01,2013-01-26 17:45:00,
2013-01-26 12:50:00,72.7,58.9,30.25,West,277,0.0,3.2,62,0.00,,,0.00,VWS V14.01,2013-01-26 17:50:00,
2013-01-26 12:55:00,72.8,58.3,30.25,NNW,329,0.0,7.1,60,0.00,,,0.00,VWS V14.01,2013-01-26 17:55:00,
2013-01-26 13:00:00,72.9,58.2,30.24,North,359,1.9,3.1,60,0.00,,,0.00,VWS V14.01,2013-01-26 18:00:00,
2013-01-26 13:05:00,72.9,58.8,30.24,NE,39,0.0,2.6,61,0.00,,,0.00,VWS V14.01,2013-01-26 18:05:00,
2013-01-26 13:10:00,73.2,59.0,30.24,West,278,0.0,0.0,61,0.00,,,0.00,VWS V14.01,2013-01-26 18:10:00,
2013-01-26 13:15:00,73.5,59.5,30.23,WNW,287,0.0,0.0,62,0.00,,,0.00,VWS V14.01,2013-01-26 18:15:00,
2013-01-26 13:20:00,73.5,59.3,30.23,NNW,343,5.2,6.0,61,0.00,,,0.00,VWS V14.01,2013-01-26 18:20:00,
2013-01-26 13:25:00,73.4,58.8,30.23,West,260,0.0,0.0,60,0.00,,,0.00,VWS V14.01,2013-01-26 18:25:00,
2013-01-26 13:30:00,73.6,59.1,30.23,West,260,0.0,0.0,60,0.00,,,0.00,VWS V14.01,2013-01-26 18:30:00,
2013-01-26 13:35:00,73.7,58.9,30.22,North,359,0.0,4.7,60,0.00,,,0.00,VWS V14.01,2013-01-26 18:35:00,
2013-01-26 13:40:00,73.7,59.2,30.22,WNW,297,0.0,5.2,61,0.00,,,0.00,VWS V14.01,2013-01-26 18:40:00,
2013-01-26 13:45:00,73.8,58.5,30.22,NW,308,0.0,5.5,59,0.00,,,0.00,VWS V14.01,2013-01-26 18:45:00,
2013-01-26 13:50:00,73.9,58.0,30.21,NE,51,0.0,3.0,58,0.00,,,0.00,VWS V14.01,2013-01-26 18:50:00,
2013-01-26 13:55:00,73.8,58.5,30.21,WNW,290,0.0,0.0,59,0.00,,,0.00,VWS V14.01,2013-01-26 18:55:00,
2013-01-26 14:00:00,74.0,58.5,30.21,SSW,193,2.7,7.7,58,0.00,,,0.00,VWS V14.01,2013-01-26 19:00:00,
2013-01-26 14:05:00,74.1,58.8,30.20,NNW,345,2.9,6.8,59,0.00,,,0.00,VWS V14.01,2013-01-26 19:05:00,
2013-01-26 14:10:00,74.4,59.1,30.20,West,263,0.0,0.0,59,0.00,,,0.00,VWS V14.01,2013-01-26 19:10:00,
2013-01-26 14:15:00,74.6,59.2,30.20,NNW,335,0.0,0.0,59,0.00,,,0.00,VWS V14.01,2013-01-26 19:15:00,
2013-01-26 14:20:00,74.5,59.5,30.20,West,274,0.0,0.0,60,0.00,,,0.00,VWS V14.01,2013-01-26 19:20:00,
2013-01-26 14:25:00,74.9,59.2,30.20,NW,312,0.0,0.0,58,0.00,,,0.00,VWS V14.01,2013-01-26 19:25:00,
2013-01-26 14:30:00,74.8,58.8,30.20,North,359,0.0,0.0,57,0.00,,,0.00,VWS V14.01,2013-01-26 19:30:00,
2013-01-26 14:35:00,74.8,59.0,30.19,NNW,336,0.0,2.7,58,0.00,,,0.00,VWS V14.01,2013-01-26 19:35:00,
2013-01-26 14:40:00,74.9,58.4,30.19,NNW,336,0.0,0.0,56,0.00,,,0.00,VWS V14.01,2013-01-26 19:40:00,
2013-01-26 14:45:00,74.7,59.1,30.19,WSW,245,0.0,3.2,58,0.00,,,0.00,VWS V14.01,2013-01-26 19:45:00,
2013-01-26 14:50:00,74.9,59.2,30.19,NW,326,0.0,5.2,58,0.00,,,0.00,VWS V14.01,2013-01-26 19:50:00,
2013-01-26 14:55:00,75.1,59.3,30.18,South,169,0.0,4.5,58,0.00,,,0.00,VWS V14.01,2013-01-26 19:55:00,
2013-01-26 15:00:00,75.5,59.5,30.19,South,174,0.0,0.0,58,0.00,,,0.00,VWS V14.01,2013-01-26 20:00:00,
2013-01-26 15:05:00,75.4,58.9,30.18,North,4,0.0,0.0,56,0.00,,,0.00,VWS V14.01,2013-01-26 20:05:00,
2013-01-26 15:10:00,75.7,58.7,30.18,NNE,15,0.0,8.1,56,0.00,,,0.00,VWS V14.01,2013-01-26 20:10:00,
2013-01-26 15:15:00,75.7,58.5,30.18,SW,229,3.2,7.0,55,0.00,,,0.00,VWS V14.01,2013-01-26 20:15:00,
2013-01-26 15:20:00,75.5,58.4,30.18,SW,229,0.0,0.0,55,0.00,,,0.00,VWS V14.01,2013-01-26 20:20:00,
2013-01-26 15:25:00,75.3,58.1,30.18,North,8,3.3,6.4,55,0.00,,,0.00,VWS V14.01,2013-01-26 20:25:00,
2013-01-26 15:30:00,75.2,58.2,30.18,North,359,0.0,0.0,56,0.00,,,0.00,VWS V14.01,2013-01-26 20:30:00,
2013-01-26 15:34:00,75.3,58.3,30.18,North,352,0.0,4.3,56,0.00,,,0.00,VWS V14.01,2013-01-26 20:34:00,
2013-01-26 15:35:00,75.3,58.4,30.18,North,352,0.0,4.3,56,0.00,,,0.00,VWS V14.01,2013-01-26 20:35:00,
2013-01-26 15:39:00,75.4,58.6,30.18,NW,312,0.0,0.0,56,0.00,,,0.00,VWS V14.01,2013-01-26 20:39:00,
2013-01-26 15:40:00,75.4,58.6,30.18,NW,312,0.0,0.0,56,0.00,,,0.00,VWS V14.01,2013-01-26 20:40:00,
2013-01-26 15:44:00,75.4,58.1,30.18,West,273,0.0,0.0,55,0.00,,,0.00,VWS V14.01,2013-01-26 20:44:00,
2013-01-26 15:45:00,75.4,58.1,30.18,West,273,0.0,0.0,55,0.00,,,0.00,VWS V14.01,2013-01-26 20:45:00,
2013-01-26 15:49:00,75.4,57.9,30.18,West,273,0.0,2.8,54,0.00,,,0.00,VWS V14.01,2013-01-26 20:49:00,
2013-01-26 15:50:00,75.4,57.9,30.18,West,273,0.0,2.8,55,0.00,,,0.00,VWS V14.01,2013-01-26 20:50:00,
2013-01-26 15:54:00,75.4,58.1,30.18,West,273,0.0,0.0,55,0.00,,,0.00,VWS V14.01,2013-01-26 20:54:00,
2013-01-26 15:55:00,75.4,58.1,30.18,West,273,0.0,0.0,55,0.00,,,0.00,VWS V14.01,2013-01-26 20:55:00,
2013-01-26 15:59:00,75.4,58.0,30.18,NNW,345,0.0,0.0,55,0.00,,,0.00,VWS V14.01,2013-01-26 20:59:00,
2013-01-26 16:00:00,75.2,57.8,30.18,NNW,345,0.0,0.0,55,0.00,,,0.00,VWS V14.01,2013-01-26 21:00:00,
2013-01-26 16:04:00,75.3,58.4,30.18,NNW,345,0.0,0.0,56,0.00,,,0.00,VWS V14.01,2013-01-26 21:04:00,
2013-01-26 16:05:00,75.3,58.4,30.18,NNW,345,0.0,0.0,56,0.00,,,0.00,VWS V14.01,2013-01-26 21:05:00,
2013-01-26 16:09:00,75.2,58.5,30.18,WNW,287,0.0,5.7,56,0.00,,,0.00,VWS V14.01,2013-01-26 21:09:00,
2013-01-26 16:10:00,75.2,58.5,30.18,WNW,287,0.0,5.7,56,0.00,,,0.00,VWS V14.01,2013-01-26 21:10:00,
2013-01-26 16:14:00,75.3,58.8,30.18,North,8,0.0,2.7,56,0.00,,,0.00,VWS V14.01,2013-01-26 21:14:00,
2013-01-26 16:15:00,75.2,58.7,30.18,North,8,0.0,2.5,57,0.00,,,0.00,VWS V14.01,2013-01-26 21:15:00,
2013-01-26 16:19:00,75.2,58.9,30.18,NNW,328,0.0,0.0,57,0.00,,,0.00,VWS V14.01,2013-01-26 21:19:00,
2013-01-26 16:20:00,75.1,58.8,30.18,NNW,328,0.0,0.0,57,0.00,,,0.00,VWS V14.01,2013-01-26 21:20:00,
2013-01-26 16:24:00,75.0,58.8,30.18,North,359,0.0,2.7,57,0.00,,,0.00,VWS V14.01,2013-01-26 21:24:00,
2013-01-26 16:25:00,75.0,58.8,30.17,North,359,0.0,0.0,57,0.00,,,0.00,VWS V14.01,2013-01-26 21:25:00,
2013-01-26 16:29:00,75.0,59.0,30.18,West,281,3.4,5.8,58,0.00,,,0.00,VWS V14.01,2013-01-26 21:29:00,
2013-01-26 16:30:00,74.9,59.0,30.17,West,281,0.0,5.8,58,0.00,,,0.00,VWS V14.01,2013-01-26 21:30:00,
2013-01-26 16:34:00,74.9,59.1,30.18,North,359,0.0,0.0,58,0.00,,,0.00,VWS V14.01,2013-01-26 21:34:00,
2013-01-26 16:35:00,74.9,59.0,30.18,North,359,0.0,0.0,58,0.00,,,0.00,VWS V14.01,2013-01-26 21:35:00,
2013-01-26 16:39:00,74.7,59.0,30.18,North,359,0.0,0.0,58,0.00,,,0.00,VWS V14.01,2013-01-26 21:39:00,
2013-01-26 16:40:00,74.6,59.0,30.17,North,359,0.0,0.0,58,0.00,,,0.00,VWS V14.01,2013-01-26 21:40:00,
2013-01-26 16:44:00,74.7,59.2,30.18,North,359,0.0,0.0,58,0.00,,,0.00,VWS V14.01,2013-01-26 21:44:00,
2013-01-26 16:45:00,74.7,59.2,30.17,North,359,0.0,0.0,59,0.00,,,0.00,VWS V14.01,2013-01-26 21:45:00,
2013-01-26 16:49:00,74.6,59.2,30.18,North,359,0.0,0.0,59,0.00,,,0.00,VWS V14.01,2013-01-26 21:49:00,
2013-01-26 16:50:00,74.5,59.2,30.18,North,359,0.0,0.0,59,0.00,,,0.00,VWS V14.01,2013-01-26 21:50:00,
2013-01-26 16:54:00,74.4,59.1,30.18,North,359,0.0,0.0,59,0.00,,,0.00,VWS V14.01,2013-01-26 21:54:00,
2013-01-26 16:55:00,74.5,59.2,30.17,North,359,0.0,0.0,59,0.00,,,0.00,VWS V14.01,2013-01-26 21:55:00,
2013-01-26 16:59:00,74.3,59.1,30.18,WSW,257,0.0,2.7,59,0.00,,,0.00,VWS V14.01,2013-01-26 21:59:00,
2013-01-26 17:00:00,74.2,59.0,30.17,WSW,257,0.0,0.0,59,0.00,,,0.00,VWS V14.01,2013-01-26 22:00:00,
2013-01-26 17:04:00,74.4,59.4,30.18,WSW,257,0.0,0.0,60,0.00,,,0.00,VWS V14.01,2013-01-26 22:04:00,
2013-01-26 17:05:00,74.1,59.2,30.17,WSW,257,0.0,0.0,60,0.00,,,0.00,VWS V14.01,2013-01-26 22:05:00,
2013-01-26 17:09:00,74.0,59.0,30.18,WSW,257,0.0,0.0,60,0.00,,,0.00,VWS V14.01,2013-01-26 22:09:00,
2013-01-26 17:10:00,74.0,59.1,30.17,WSW,257,0.0,0.0,60,0.00,,,0.00,VWS V14.01,2013-01-26 22:10:00,
2013-01-26 17:14:00,73.9,59.0,30.18,West,271,0.0,3.2,60,0.00,,,0.00,VWS V14.01,2013-01-26 22:14:00,
2013-01-26 17:15:00,74.0,59.2,30.17,West,271,0.0,0.0,60,0.00,,,0.00,VWS V14.01,2013-01-26 22:15:00,
2013-01-26 17:19:00,73.8,59.0,30.18,West,271,0.0,2.9,60,0.00,,,0.00,VWS V14.01,2013-01-26 22:19:00,
2013-01-26 17:20:00,73.9,59.2,30.18,West,271,0.0,0.0,60,0.00,,,0.00,VWS V14.01,2013-01-26 22:20:00,
2013-01-26 17:24:00,73.8,59.2,30.18,West,271,0.0,0.0,60,0.00,,,0.00,VWS V14.01,2013-01-26 22:24:00,
2013-01-26 17:25:00,73.6,59.0,30.18,West,271,0.0,0.0,60,0.00,,,0.00,VWS V14.01,2013-01-26 22:25:00,
2013-01-26 17:29:00,73.5,59.1,30.18,West,271,0.0,0.0,61,0.00,,,0.00,VWS V14.01,2013-01-26 22:29:00,
2013-01-26 17:30:00,73.5,59.1,30.18,West,271,0.0,0.0,61,0.00,,,0.00,VWS V14.01,2013-01-26 22:30:00,
2013-01-26 17:34:00,73.5,59.3,30.18,West,271,0.0,0.0,61,0.00,,,0.00,VWS V14.01,2013-01-26 22:34:00,
2013-01-26 17:35:00,73.4,59.2,30.18,West,271,0.0,0.0,61,0.00,,,0.00,VWS V14.01,2013-01-26 22:35:00,
2013-01-26 17:39:00,73.3,59.3,30.18,West,271,0.0,0.0,62,0.00,,,0.00,VWS V14.01,2013-01-26 22:39:00,
2013-01-26 17:40:00,73.2,59.2,30.18,West,271,0.0,0.0,62,0.00,,,0.00,VWS V14.01,2013-01-26 22:40:00,
2013-01-26 17:44:00,73.0,59.3,30.18,West,271,0.0,0.0,62,0.00,,,0.00,VWS V14.01,2013-01-26 22:44:00,
2013-01-26 17:45:00,73.1,59.4,30.18,West,271,0.0,0.0,62,0.00,,,0.00,VWS V14.01,2013-01-26 22:45:00,
2013-01-26 17:49:00,72.6,59.2,30.18,West,271,0.0,0.0,63,0.00,,,0.00,VWS V14.01,2013-01-26 22:49:00,
2013-01-26 17:50:00,72.6,59.2,30.18,West,271,0.0,0.0,63,0.00,,,0.00,VWS V14.01,2013-01-26 22:50:00,
2013-01-26 17:54:00,72.3,59.2,30.18,West,271,0.0,0.0,63,0.00,,,0.00,VWS V14.01,2013-01-26 22:54:00,
2013-01-26 17:55:00,72.4,59.3,30.18,West,271,0.0,0.0,63,0.00,,,0.00,VWS V14.01,2013-01-26 22:55:00,
2013-01-26 17:59:00,72.0,59.2,30.18,West,271,0.0,0.0,64,0.00,,,0.00,VWS V14.01,2013-01-26 22:59:00,
2013-01-26 18:00:00,71.9,59.1,30.18,West,271,0.0,0.0,64,0.00,,,0.00,VWS V14.01,2013-01-26 23:00:00,
2013-01-26 18:04:00,71.7,59.2,30.19,West,271,0.0,0.0,65,0.00,,,0.00,VWS V14.01,2013-01-26 23:04:00,
2013-01-26 18:05:00,71.7,59.2,30.19,West,271,0.0,0.0,65,0.00,,,0.00,VWS V14.01,2013-01-26 23:05:00,
2013-01-26 18:09:00,71.4,59.1,30.18,West,271,0.0,0.0,65,0.00,,,0.00,VWS V14.01,2013-01-26 23:09:00,
2013-01-26 18:10:00,71.5,59.3,30.18,West,271,0.0,0.0,65,0.00,,,0.00,VWS V14.01,2013-01-26 23:10:00,
2013-01-26 18:14:00,71.1,59.1,30.19,West,271,0.0,0.0,66,0.00,,,0.00,VWS V14.01,2013-01-26 23:14:00,
2013-01-26 18:15:00,70.9,59.0,30.19,West,271,0.0,0.0,66,0.00,,,0.00,VWS V14.01,2013-01-26 23:15:00,
2013-01-26 18:19:00,70.5,58.7,30.19,West,271,0.0,0.0,66,0.00,,,0.00,VWS V14.01,2013-01-26 23:19:00,
2013-01-26 18:20:00,70.7,58.9,30.19,West,271,0.0,0.0,66,0.00,,,0.00,VWS V14.01,2013-01-26 23:20:00,
2013-01-26 18:24:00,70.2,58.7,30.19,West,271,0.0,0.0,67,0.00,,,0.00,VWS V14.01,2013-01-26 23:24:00,
2013-01-26 18:25:00,70.2,58.8,30.19,West,271,0.0,0.0,67,0.00,,,0.00,VWS V14.01,2013-01-26 23:25:00,
2013-01-26 18:29:00,69.7,58.5,30.19,West,271,0.0,0.0,68,0.00,,,0.00,VWS V14.01,2013-01-26 23:29:00,
2013-01-26 18:30:00,69.8,58.7,30.19,West,271,0.0,0.0,68,0.00,,,0.00,VWS V14.01,2013-01-26 23:30:00,
2013-01-26 18:34:00,69.5,58.6,30.19,West,271,0.0,0.0,68,0.00,,,0.00,VWS V14.01,2013-01-26 23:34:00,
2013-01-26 18:35:00,69.4,58.5,30.19,West,271,0.0,0.0,68,0.00,,,0.00,VWS V14.01,2013-01-26 23:35:00,
2013-01-26 18:39:00,69.3,58.6,30.19,West,271,0.0,0.0,69,0.00,,,0.00,VWS V14.01,2013-01-26 23:39:00,
2013-01-26 18:40:00,69.1,58.4,30.19,West,271,0.0,0.0,69,0.00,,,0.00,VWS V14.01,2013-01-26 23:40:00,
2013-01-26 18:44:00,68.9,58.4,30.20,West,271,0.0,0.0,69,0.00,,,0.00,VWS V14.01,2013-01-26 23:44:00,
2013-01-26 18:45:00,68.7,58.2,30.19,West,271,0.0,0.0,69,0.00,,,0.00,VWS V14.01,2013-01-26 23:45:00,
2013-01-26 18:49:00,68.6,58.4,30.20,West,271,0.0,0.0,70,0.00,,,0.00,VWS V14.01,2013-01-26 23:49:00,
2013-01-26 18:50:00,68.6,58.4,30.20,West,271,0.0,0.0,70,0.00,,,0.00,VWS V14.01,2013-01-26 23:50:00,
2013-01-26 18:54:00,68.5,58.5,30.20,West,271,0.0,0.0,70,0.00,,,0.00,VWS V14.01,2013-01-26 23:54:00,
2013-01-26 18:55:00,68.4,58.4,30.20,West,271,0.0,0.0,70,0.00,,,0.00,VWS V14.01,2013-01-26 23:55:00,
2013-01-26 18:59:00,68.1,58.3,30.20,West,271,0.0,0.0,71,0.00,,,0.00,VWS V14.01,2013-01-26 23:59:00,
2013-01-26 19:00:00,68.1,58.3,30.20,West,271,0.0,0.0,71,0.00,,,0.00,VWS V14.01,2013-01-27 00:00:00,
2013-01-26 19:04:00,67.7,58.1,30.20,West,271,0.0,0.0,71,0.00,,,0.00,VWS V14.01,2013-01-27 00:04:00,
2013-01-26 19:05:00,67.4,57.9,30.20,West,271,0.0,0.0,72,0.00,,,0.00,VWS V14.01,2013-01-27 00:05:00,
2013-01-26 19:09:00,67.3,57.9,30.20,West,271,0.0,0.0,72,0.00,,,0.00,VWS V14.01,2013-01-27 00:09:00,
2013-01-26 19:10:00,67.4,58.0,30.20,West,271,0.0,0.0,72,0.00,,,0.00,VWS V14.01,2013-01-27 00:10:00,
2013-01-26 19:14:00,67.3,58.0,30.20,West,271,0.0,0.0,72,0.00,,,0.00,VWS V14.01,2013-01-27 00:14:00,
2013-01-26 19:15:00,67.3,58.0,30.20,West,271,0.0,0.0,72,0.00,,,0.00,VWS V14.01,2013-01-27 00:15:00,
2013-01-26 19:19:00,67.2,58.0,30.20,West,271,0.0,0.0,72,0.00,,,0.00,VWS V14.01,2013-01-27 00:19:00,
2013-01-26 19:20:00,67.1,58.0,30.20,West,271,0.0,0.0,72,0.00,,,0.00,VWS V14.01,2013-01-27 00:20:00,
2013-01-26 19:24:00,66.8,57.8,30.20,West,271,0.0,0.0,73,0.00,,,0.00,VWS V14.01,2013-01-27 00:24:00,
2013-01-26 19:25:00,66.5,57.6,30.20,West,271,0.0,0.0,73,0.00,,,0.00,VWS V14.01,2013-01-27 00:25:00,
2013-01-26 19:29:00,66.0,57.3,30.20,West,271,0.0,0.0,74,0.00,,,0.00,VWS V14.01,2013-01-27 00:29:00,
2013-01-26 19:30:00,66.1,57.4,30.20,West,271,0.0,0.0,74,0.00,,,0.00,VWS V14.01,2013-01-27 00:30:00,
2013-01-26 19:34:00,65.7,57.1,30.20,West,271,0.0,0.0,74,0.00,,,0.00,VWS V14.01,2013-01-27 00:34:00,
2013-01-26 19:35:00,66.0,57.5,30.20,West,271,0.0,0.0,74,0.00,,,0.00,VWS V14.01,2013-01-27 00:35:00,
2013-01-26 19:39:00,65.6,57.1,30.20,West,271,0.0,0.0,74,0.00,,,0.00,VWS V14.01,2013-01-27 00:39:00,
2013-01-26 19:40:00,65.5,57.1,30.20,West,271,0.0,0.0,74,0.00,,,0.00,VWS V14.01,2013-01-27 00:40:00,
2013-01-26 19:44:00,65.2,56.9,30.20,West,271,0.0,0.0,75,0.00,,,0.00,VWS V14.01,2013-01-27 00:44:00,
2013-01-26 19:45:00,65.3,57.1,30.20,West,271,0.0,0.0,75,0.00,,,0.00,VWS V14.01,2013-01-27 00:45:00,
2013-01-26 19:49:00,65.1,57.0,30.20,West,271,0.0,0.0,75,0.00,,,0.00,VWS V14.01,2013-01-27 00:49:00,
2013-01-26 19:50:00,64.9,56.9,30.20,West,271,0.0,0.0,75,0.00,,,0.00,VWS V14.01,2013-01-27 00:50:00,
2013-01-26 19:54:00,65.0,57.0,30.21,West,271,0.0,0.0,75,0.00,,,0.00,VWS V14.01,2013-01-27 00:54:00,
2013-01-26 19:55:00,64.9,57.0,30.21,West,271,0.0,0.0,76,0.00,,,0.00,VWS V14.01,2013-01-27 00:55:00,
2013-01-26 19:59:00,64.6,57.0,30.21,West,271,0.0,0.0,76,0.00,,,0.00,VWS V14.01,2013-01-27 00:59:00,
2013-01-26 23:23:00,60.1,55.8,30.25,West,271,0.0,0.0,86,0.00,,,0.00,VWS V14.01,2013-01-27 04:23:00,
2013-01-26 23:28:00,60.0,55.7,30.25,West,271,0.0,0.0,86,0.00,,,0.00,VWS V14.01,2013-01-27 04:28:00,
2013-01-26 23:33:00,60.2,55.9,30.25,West,271,0.0,0.0,86,0.00,,,0.00,VWS V14.01,2013-01-27 04:33:00,
2013-01-26 23:38:00,59.4,55.3,30.25,West,271,0.0,0.0,86,0.00,,,0.00,VWS V14.01,2013-01-27 04:38:00,
2013-01-26 23:43:00,59.5,55.6,30.26,West,271,0.0,0.0,87,0.00,,,0.00,VWS V14.01,2013-01-27 04:43:00,
2013-01-26 23:48:00,59.3,55.5,30.26,West,271,0.0,0.0,87,0.00,,,0.00,VWS V14.01,2013-01-27 04:48:00,
2013-01-26 23:53:00,59.4,55.5,30.26,West,271,0.0,0.0,87,0.00,,,0.00,VWS V14.01,2013-01-27 04:53:00,
2013-01-26 23:58:00,59.2,55.2,30.26,West,271,0.0,0.0,87,0.00,,,0.00,VWS V14.01,2013-01-27 04:58:00,